createdAt,value
2022-11-24T00:02:46.425Z,3.23
2022-11-24T00:07:52.003Z,3.85
2022-11-24T00:13:00.003Z,3.60
2022-11-24T00:18:05.744Z,3.20
2022-11-24T00:23:11.051Z,3.45
2022-11-24T00:28:18.982Z,3.17
2022-11-24T00:33:24.299Z,2.90
2022-11-24T00:38:29.757Z,3.43
2022-11-24T00:43:38.214Z,3.30
2022-11-24T00:48:43.625Z,3.30
2022-11-24T00:53:49.045Z,3.00
2022-11-24T00:58:57.103Z,3.03
2022-11-24T01:04:04.163Z,2.77
2022-11-24T01:09:09.613Z,2.42
2022-11-24T01:14:18.059Z,2.60
2022-11-24T01:19:23.610Z,2.80
2022-11-24T01:24:28.964Z,2.85
2022-11-24T01:29:36.956Z,2.93
2022-11-24T01:34:42.219Z,2.55
2022-11-24T01:39:47.587Z,2.85
2022-11-24T01:45:31.591Z,2.20
2022-11-24T01:50:41.861Z,2.33
2022-11-24T01:55:47.172Z,2.30
2022-11-24T02:00:56.026Z,2.58
2022-11-24T02:06:04.709Z,3.50
2022-11-24T02:11:10.237Z,2.50
2022-11-24T02:16:18.333Z,2.38
2022-11-24T02:21:23.738Z,2.50
2022-11-24T02:26:52.343Z,2.65
2022-11-24T02:32:03.184Z,2.72
2022-11-24T02:37:08.723Z,1.80
2022-11-24T02:42:16.820Z,2.22
2022-11-24T02:47:22.414Z,2.00
2022-11-24T02:52:27.810Z,1.70
2022-11-24T02:57:35.818Z,1.73
2022-11-24T03:02:41.166Z,2.20
2022-11-24T03:07:46.710Z,1.77
2022-11-24T03:12:54.718Z,2.03
2022-11-24T03:18:00.057Z,1.75
2022-11-24T03:23:06.032Z,1.98
2022-11-24T03:28:13.984Z,3.03
2022-11-24T03:33:19.265Z,1.88
2022-11-24T03:38:24.663Z,2.30
2022-11-24T03:43:32.612Z,1.90
2022-11-24T03:48:38.083Z,2.75
2022-11-24T03:53:43.466Z,2.37
2022-11-24T03:58:51.376Z,2.92
2022-11-24T04:03:56.680Z,2.20
2022-11-24T04:09:03.153Z,2.33
2022-11-24T04:14:13.754Z,2.17
2022-11-24T04:19:19.448Z,1.90
2022-11-24T04:24:24.935Z,2.40
2022-11-24T04:29:33.052Z,2.70
2022-11-24T04:34:38.811Z,2.28
2022-11-24T04:39:45.006Z,2.08
2022-11-24T04:44:53.422Z,2.10
2022-11-24T04:49:58.738Z,2.55
2022-11-24T04:55:04.407Z,2.30
2022-11-24T05:00:14.090Z,2.30
2022-11-24T05:05:19.741Z,2.00
2022-11-24T05:10:40.438Z,2.57
2022-11-24T05:15:48.799Z,2.03
2022-11-24T05:20:54.215Z,2.70
2022-11-24T05:26:02.704Z,2.50
2022-11-24T05:31:11.050Z,1.98
2022-11-24T05:36:36.923Z,2.50
2022-11-24T05:41:42.347Z,2.88
2022-11-24T05:46:50.353Z,2.90
2022-11-24T05:51:55.738Z,3.00
2022-11-24T05:57:01.062Z,2.70
2022-11-24T06:02:10.222Z,3.17
2022-11-24T06:07:16.454Z,2.90
2022-11-24T06:12:21.920Z,2.30
2022-11-24T06:17:30.171Z,2.70
2022-11-24T06:22:36.025Z,2.75
2022-11-24T06:27:41.467Z,2.13
2022-11-24T06:32:50.203Z,2.38
2022-11-24T06:37:55.707Z,2.30
2022-11-24T06:43:01.385Z,2.17
2022-11-24T06:48:09.581Z,1.77
2022-11-24T06:53:15.525Z,2.03
2022-11-24T06:58:21.045Z,2.15
2022-11-24T07:03:29.455Z,1.57
2022-11-24T07:08:35.032Z,1.25
2022-11-24T07:13:40.479Z,1.10
2022-11-24T07:18:49.822Z,0.57
2022-11-24T07:23:56.857Z,0.90
2022-11-24T07:29:02.474Z,0.93
2022-11-24T07:34:10.523Z,0.40
2022-11-24T07:39:15.900Z,0.50
2022-11-24T07:44:21.794Z,0.77
2022-11-24T07:49:29.802Z,0.65
2022-11-24T07:54:35.477Z,0.50
2022-11-24T07:59:41.047Z,0.40
2022-11-24T08:04:49.048Z,0.52
2022-11-24T08:09:54.431Z,0.40
2022-11-24T08:14:59.805Z,0.95
2022-11-24T08:20:09.252Z,0.70
2022-11-24T08:25:15.431Z,1.15
2022-11-24T08:30:21.199Z,0.98
2022-11-24T08:35:29.483Z,1.07
2022-11-24T08:40:35.443Z,0.80
2022-11-24T08:45:41.847Z,1.40
2022-11-24T08:50:50.164Z,0.88
2022-11-24T08:55:55.594Z,1.40
2022-11-24T09:01:08.915Z,1.00
2022-11-24T09:06:17.585Z,1.10
2022-11-24T09:11:23.578Z,1.13
2022-11-24T09:16:30.906Z,1.05
2022-11-24T09:21:40.644Z,1.58
2022-11-24T09:26:47.898Z,1.50
2022-11-24T09:31:53.558Z,1.10
2022-11-24T09:37:01.767Z,1.40
2022-11-24T09:42:15.502Z,1.50
2022-11-24T09:47:30.899Z,1.15
2022-11-24T09:52:54.836Z,1.40
2022-11-24T09:58:12.163Z,1.60
2022-11-24T10:03:25.681Z,2.40
2022-11-24T10:08:45.793Z,1.38
2022-11-24T10:14:11.074Z,1.30
2022-11-24T10:19:36.331Z,1.10
2022-11-24T10:25:20.539Z,1.35
2022-11-24T10:30:26.733Z,1.47
2022-11-24T10:35:40.508Z,1.15
2022-11-24T10:40:59.122Z,1.58
2022-11-24T10:46:14.430Z,1.73
2022-11-24T10:51:36.393Z,1.90
2022-11-24T10:56:46.684Z,2.07
2022-11-24T11:01:52.404Z,1.38
2022-11-24T11:07:20.148Z,1.30
2022-11-24T11:12:47.907Z,1.37
2022-11-24T11:17:57.475Z,1.45
2022-11-24T11:23:06.015Z,1.20
2022-11-24T11:28:27.885Z,2.05
2022-11-24T11:39:02.342Z,1.57
2022-11-24T11:44:20.533Z,1.25
2022-11-24T11:49:25.867Z,1.37
2022-11-24T11:54:44.006Z,1.50
2022-11-24T12:00:10.616Z,1.75
2022-11-24T12:05:26.007Z,1.47
2022-11-24T12:10:37.543Z,1.75
2022-11-24T12:15:50.157Z,1.30
2022-11-24T12:21:05.893Z,1.55
2022-11-24T12:26:20.947Z,1.83
2022-11-24T12:31:39.484Z,2.60
2022-11-24T12:36:57.856Z,1.35
2022-11-24T12:42:14.911Z,1.57
2022-11-24T12:47:28.417Z,1.40
2022-11-24T12:52:39.516Z,1.80
2022-11-24T12:57:50.844Z,1.50
2022-11-24T13:03:19.561Z,1.65
2022-11-24T13:08:26.428Z,1.73
2022-11-24T13:14:00.312Z,1.75
2022-11-24T13:19:12.356Z,1.48
2022-11-24T13:24:27.241Z,2.23
2022-11-24T13:29:35.819Z,2.00
2022-11-24T13:35:15.137Z,1.93
2022-11-24T13:40:54.629Z,1.85
2022-11-24T13:46:12.904Z,1.65
2022-11-24T13:51:37.831Z,1.40
2022-11-24T13:56:43.522Z,1.73
2022-11-24T14:02:00.242Z,1.90
2022-11-24T14:07:10.453Z,1.80
2022-11-24T14:12:17.585Z,1.67
2022-11-24T14:17:25.195Z,2.10
2022-11-24T14:22:37.750Z,1.83
2022-11-24T14:27:43.192Z,1.77
2022-11-24T14:32:56.896Z,1.90
2022-11-24T14:38:06.550Z,1.83
2022-11-24T14:43:27.072Z,1.90
2022-11-24T14:48:35.985Z,1.40
2022-11-24T14:53:49.861Z,2.20
2022-11-24T14:58:55.738Z,1.75
2022-11-24T15:04:54.399Z,2.55
2022-11-24T15:09:54.864Z,2.77
2022-11-24T15:15:03.560Z,2.00
2022-11-24T15:20:13.408Z,2.43
2022-11-24T15:25:42.560Z,2.40
2022-11-24T15:30:48.037Z,2.58
2022-11-24T15:35:53.633Z,2.53
2022-11-24T15:41:04.197Z,2.88
2022-11-24T15:46:10.773Z,3.33
2022-11-24T15:51:17.610Z,3.13
2022-11-24T15:56:31.915Z,2.53
2022-11-24T16:01:37.495Z,3.43
2022-11-24T16:06:43.002Z,3.05
2022-11-24T16:11:50.988Z,4.53
2022-11-24T16:16:56.587Z,4.53
2022-11-24T16:22:02.651Z,3.88
2022-11-24T16:27:12.094Z,4.30
2022-11-24T16:32:17.721Z,3.42
2022-11-24T16:37:26.343Z,4.13
2022-11-24T16:42:34.503Z,3.70
2022-11-24T16:47:43.059Z,3.30
2022-11-24T16:52:48.558Z,3.60
2022-11-24T16:57:58.205Z,3.80
2022-11-24T17:03:03.858Z,2.90
2022-11-24T17:08:09.649Z,2.78
2022-11-24T17:13:17.754Z,2.05
2022-11-24T17:18:24.976Z,2.03
2022-11-24T17:23:31.442Z,2.17
2022-11-24T17:28:40.251Z,2.47
2022-11-24T17:33:45.754Z,2.25
2022-11-24T17:38:51.912Z,5.13
2022-11-24T17:44:00.825Z,1.97
2022-11-24T17:49:06.828Z,3.03
2022-11-24T17:54:44.810Z,2.23
2022-11-24T17:59:40.402Z,2.22
2022-11-24T18:04:45.809Z,5.47
2022-11-24T18:09:51.481Z,2.20
2022-11-24T18:14:59.987Z,3.10
2022-11-24T18:20:05.920Z,2.77
2022-11-24T18:25:11.969Z,3.38
2022-11-24T18:30:21.305Z,2.90
2022-11-24T18:35:39.859Z,1.97
2022-11-24T18:40:46.896Z,3.22
2022-11-24T18:45:55.971Z,6.80
2022-11-24T18:51:02.238Z,4.35
2022-11-24T18:56:09.963Z,2.90
2022-11-24T19:01:19.700Z,4.40
2022-11-24T19:06:28.857Z,5.40
2022-11-24T19:11:37.155Z,8.93
2022-11-24T19:16:46.412Z,4.68
2022-11-24T19:21:51.866Z,2.67
2022-11-24T19:26:57.560Z,4.07
2022-11-24T19:32:05.637Z,3.03
2022-11-24T19:37:11.018Z,2.47
2022-11-24T19:42:16.776Z,2.70
2022-11-24T19:47:24.866Z,3.17
2022-11-24T19:52:30.362Z,5.33
2022-11-24T19:57:35.785Z,5.22
2022-11-24T20:02:43.936Z,3.40
2022-11-24T20:07:49.568Z,3.38
2022-11-24T20:12:54.919Z,2.70
2022-11-24T20:18:04.505Z,2.93
2022-11-24T20:23:10.454Z,2.92
2022-11-24T20:28:15.880Z,4.47
2022-11-24T20:33:24.162Z,3.58
2022-11-24T20:38:31.261Z,3.58
2022-11-24T20:43:38.050Z,2.73
2022-11-24T20:48:46.524Z,2.25
2022-11-24T20:53:52.764Z,2.20
2022-11-24T20:58:59.259Z,2.20
2022-11-24T21:04:08.916Z,2.10
2022-11-24T21:09:14.453Z,2.27
2022-11-24T21:14:19.995Z,2.33
2022-11-24T21:19:28.238Z,2.27
2022-11-24T21:24:33.892Z,2.45
2022-11-24T21:29:39.545Z,2.72
2022-11-24T21:34:47.966Z,2.60
2022-11-24T21:39:53.305Z,2.83
2022-11-24T21:45:01.962Z,2.53
2022-11-24T21:50:11.507Z,2.33
2022-11-24T21:55:17.161Z,2.30
2022-11-24T22:00:23.731Z,2.50
2022-11-24T22:05:31.770Z,2.30
2022-11-24T22:10:37.209Z,2.63
2022-11-24T22:15:42.548Z,2.08
2022-11-24T22:20:57.030Z,2.40
2022-11-24T22:26:05.935Z,2.47
2022-11-24T22:31:13.593Z,1.77
2022-11-24T22:36:23.946Z,2.37
2022-11-24T22:41:29.329Z,2.60
2022-11-24T22:46:34.891Z,2.35
2022-11-24T22:51:42.986Z,2.40
2022-11-24T22:56:48.504Z,2.30
2022-11-24T23:01:54.016Z,2.70
2022-11-24T23:07:02.338Z,2.42
2022-11-24T23:12:08.649Z,2.00
2022-11-24T23:17:13.970Z,1.53
2022-11-24T23:22:21.933Z,1.80
2022-11-24T23:27:27.272Z,2.20
2022-11-24T23:32:32.632Z,2.05
2022-11-24T23:38:06.154Z,2.10
2022-11-24T23:43:07.262Z,1.40
2022-11-24T23:48:12.560Z,2.15
2022-11-24T23:53:20.526Z,1.90
2022-11-24T23:58:26.059Z,2.08
